Tobruk, Libya
Current Conditions -  °F | °C
As of 2:00 PM on Friday 19 Dec 2014 (Local Time) from HEMM Reporting Station
Broken Clouds Broken Clouds  
Wind Chill: 66°   Ceiling: 10000
Heat Index: 66°   Visibility: 6mi
Dew Point: 55°   Wind: 13mph
Humidity: 68%   Direction: 330°NNW
Pressure: 30.12"   Gusts: NA
Location:  32.08°N, 23.98°E
Report Text: HEMM 191100Z 33011KT 9999 SCT020 BKN100 19/13 Q1020 NOSIG
Loading
Personal Weather Stations






























Interactive Weather Map New forecast layout! Learn more

10-Day Weather Forecast

Advertisements
Track Severe Weather on mobile